sensor_id;sensor_type;location;lat;lon;timestamp;pressure;altitude;pressure_sealevel;temperature;humidity
39789;BME280;25478;42.626;23.320;2023-02-22T00:00:55;93104.16;;;7.40;48.72
39789;BME280;25478;42.626;23.320;2023-02-22T00:03:26;93100.72;;;7.32;48.29
39789;BME280;25478;42.626;23.320;2023-02-22T00:05:54;93100.19;;;7.23;48.89
39789;BME280;25478;42.626;23.320;2023-02-22T00:08:24;93098.91;;;7.13;49.01
39789;BME280;25478;42.626;23.320;2023-02-22T00:10:59;93085.91;;;6.94;49.43
39789;BME280;25478;42.626;23.320;2023-02-22T00:13:25;93105.75;;;6.95;49.96
39789;BME280;25478;42.626;23.320;2023-02-22T00:15:56;93102.97;;;6.84;49.57
39789;BME280;25478;42.626;23.320;2023-02-22T00:18:22;93106.19;;;6.77;49.70
39789;BME280;25478;42.626;23.320;2023-02-22T00:20:48;93107.59;;;6.71;50.27
39789;BME280;25478;42.626;23.320;2023-02-22T00:23:17;93101.16;;;6.65;50.69
39789;BME280;25478;42.626;23.320;2023-02-22T00:25:47;93097.69;;;6.61;50.63
39789;BME280;25478;42.626;23.320;2023-02-22T00:28:13;93100.63;;;6.56;50.04
39789;BME280;25478;42.626;23.320;2023-02-22T00:30:40;93099.78;;;6.52;50.59
39789;BME280;25478;42.626;23.320;2023-02-22T00:33:08;93097.44;;;6.47;50.69
39789;BME280;25478;42.626;23.320;2023-02-22T00:35:34;93095.53;;;6.44;51.04
39789;BME280;25478;42.626;23.320;2023-02-22T00:38:01;93085.34;;;6.39;51.07
39789;BME280;25478;42.626;23.320;2023-02-22T00:40:29;93080.06;;;6.35;51.37
39789;BME280;25478;42.626;23.320;2023-02-22T00:42:56;93083.38;;;6.32;51.20
39789;BME280;25478;42.626;23.320;2023-02-22T00:45:23;93085.56;;;6.30;51.62
39789;BME280;25478;42.626;23.320;2023-02-22T00:47:50;93083.28;;;6.29;51.24
39789;BME280;25478;42.626;23.320;2023-02-22T00:50:17;93081.03;;;6.27;51.16
39789;BME280;25478;42.626;23.320;2023-02-22T00:52:43;93071.19;;;6.20;51.45
39789;BME280;25478;42.626;23.320;2023-02-22T00:55:15;93075.31;;;6.21;51.30
39789;BME280;25478;42.626;23.320;2023-02-22T00:57:41;93066.94;;;6.12;51.46
39789;BME280;25478;42.626;23.320;2023-02-22T01:00:09;93064.81;;;6.18;51.43
39789;BME280;25478;42.626;23.320;2023-02-22T01:02:38;93069.28;;;6.17;51.19
39789;BME280;25478;42.626;23.320;2023-02-22T01:05:05;93069.63;;;6.16;51.89
39789;BME280;25478;42.626;23.320;2023-02-22T01:07:31;93063.16;;;6.10;52.26
39789;BME280;25478;42.626;23.320;2023-02-22T01:09:57;93067.59;;;6.06;52.25
39789;BME280;25478;42.626;23.320;2023-02-22T01:12:22;93069.34;;;6.02;52.74
39789;BME280;25478;42.626;23.320;2023-02-22T01:14:48;93067.00;;;5.97;52.27
39789;BME280;25478;42.626;23.320;2023-02-22T01:17:13;93065.09;;;5.93;52.90
39789;BME280;25478;42.626;23.320;2023-02-22T01:19:39;93067.72;;;5.93;53.17
39789;BME280;25478;42.626;23.320;2023-02-22T01:22:07;93056.56;;;5.97;52.54
39789;BME280;25478;42.626;23.320;2023-02-22T01:24:33;93050.25;;;5.98;53.12
39789;BME280;25478;42.626;23.320;2023-02-22T01:26:59;93057.00;;;5.99;52.48
39789;BME280;25478;42.626;23.320;2023-02-22T01:29:26;93038.88;;;5.90;52.68
39789;BME280;25478;42.626;23.320;2023-02-22T01:31:54;93046.94;;;6.01;53.08
39789;BME280;25478;42.626;23.320;2023-02-22T01:34:21;93044.34;;;6.01;52.27
39789;BME280;25478;42.626;23.320;2023-02-22T01:36:47;93043.59;;;6.00;52.66
39789;BME280;25478;42.626;23.320;2023-02-22T01:39:13;93042.81;;;6.00;52.11
39789;BME280;25478;42.626;23.320;2023-02-22T01:41:39;93043.22;;;6.02;52.28
39789;BME280;25478;42.626;23.320;2023-02-22T01:46:54;93045.09;;;6.01;52.97
39789;BME280;25478;42.626;23.320;2023-02-22T01:49:21;93039.50;;;6.03;52.48
39789;BME280;25478;42.626;23.320;2023-02-22T01:51:49;93049.97;;;6.03;52.87
39789;BME280;25478;42.626;23.320;2023-02-22T01:54:24;93048.47;;;6.02;53.11
39789;BME280;25478;42.626;23.320;2023-02-22T01:57:13;93049.16;;;5.99;52.69
39789;BME280;25478;42.626;23.320;2023-02-22T01:59:43;93049.91;;;5.99;53.23
39789;BME280;25478;42.626;23.320;2023-02-22T02:02:12;93047.28;;;5.99;52.79
39789;BME280;25478;42.626;23.320;2023-02-22T02:04:39;93050.25;;;5.98;53.30
39789;BME280;25478;42.626;23.320;2023-02-22T02:07:09;93050.66;;;6.00;53.29
39789;BME280;25478;42.626;23.320;2023-02-22T02:09:42;93047.69;;;6.01;53.11
39789;BME280;25478;42.626;23.320;2023-02-22T02:12:10;93039.81;;;5.98;53.05
39789;BME280;25478;42.626;23.320;2023-02-22T02:14:37;93038.28;;;5.97;53.57
39789;BME280;25478;42.626;23.320;2023-02-22T02:17:09;93033.75;;;5.93;53.25
39789;BME280;25478;42.626;23.320;2023-02-22T02:31:01;93053.72;;;5.86;52.66
39789;BME280;25478;42.626;23.320;2023-02-22T02:33:32;93051.81;;;5.83;52.70
39789;BME280;25478;42.626;23.320;2023-02-22T02:39:01;93043.19;;;5.63;52.74
39789;BME280;25478;42.626;23.320;2023-02-22T02:41:36;93054.41;;;5.63;53.29
39789;BME280;25478;42.626;23.320;2023-02-22T02:49:30;93068.88;;;5.42;55.10
39789;BME280;25478;42.626;23.320;2023-02-22T02:51:59;93067.97;;;5.34;54.56
39789;BME280;25478;42.626;23.320;2023-02-22T02:54:26;93064.53;;;5.30;54.86
39789;BME280;25478;42.626;23.320;2023-02-22T02:56:54;93062.19;;;5.25;55.54
39789;BME280;25478;42.626;23.320;2023-02-22T03:13:34;93062.91;;;4.90;56.50
39789;BME280;25478;42.626;23.320;2023-02-22T03:24:20;93063.13;;;4.85;57.33
39789;BME280;25478;42.626;23.320;2023-02-22T03:27:01;93062.38;;;4.85;57.18
39789;BME280;25478;42.626;23.320;2023-02-22T03:29:31;93069.09;;;4.86;57.53
39789;BME280;25478;42.626;23.320;2023-02-22T03:32:04;93062.56;;;4.92;57.43
39789;BME280;25478;42.626;23.320;2023-02-22T03:34:38;93056.81;;;5.02;57.43
39789;BME280;25478;42.626;23.320;2023-02-22T03:37:19;93060.50;;;5.17;56.69
39789;BME280;25478;42.626;23.320;2023-02-22T03:39:48;93053.44;;;5.17;56.41
39789;BME280;25478;42.626;23.320;2023-02-22T03:42:21;93066.00;;;5.47;56.26
39789;BME280;25478;42.626;23.320;2023-02-22T03:44:50;93069.94;;;5.56;56.30
39789;BME280;25478;42.626;23.320;2023-02-22T03:47:21;93067.13;;;5.65;56.25
39789;BME280;25478;42.626;23.320;2023-02-22T03:49:56;93061.22;;;5.68;56.04
39789;BME280;25478;42.626;23.320;2023-02-22T03:52:24;93055.63;;;5.70;55.95
39789;BME280;25478;42.626;23.320;2023-02-22T03:54:50;93060.44;;;5.68;56.03
39789;BME280;25478;42.626;23.320;2023-02-22T03:57:24;93059.34;;;5.69;55.96
39789;BME280;25478;42.626;23.320;2023-02-22T04:00:01;93059.34;;;5.69;55.78
39789;BME280;25478;42.626;23.320;2023-02-22T04:02:38;93072.75;;;5.67;55.87
39789;BME280;25478;42.626;23.320;2023-02-22T04:05:04;93064.53;;;5.65;55.96
39789;BME280;25478;42.626;23.320;2023-02-22T04:07:30;93061.06;;;5.61;56.08
39789;BME280;25478;42.626;23.320;2023-02-22T04:09:56;93062.09;;;5.56;55.91
39789;BME280;25478;42.626;23.320;2023-02-22T04:12:21;93061.00;;;5.57;55.52
39789;BME280;25478;42.626;23.320;2023-02-22T04:15:07;93058.59;;;5.49;55.86
39789;BME280;25478;42.626;23.320;2023-02-22T04:17:34;93062.34;;;5.51;56.11
39789;BME280;25478;42.626;23.320;2023-02-22T04:20:01;93043.13;;;5.40;55.51
39789;BME280;25478;42.626;23.320;2023-02-22T04:22:36;93052.16;;;5.46;56.40
39789;BME280;25478;42.626;23.320;2023-02-22T04:25:02;93061.09;;;5.45;56.10
39789;BME280;25478;42.626;23.320;2023-02-22T04:27:28;93059.59;;;5.44;55.85
39789;BME280;25478;42.626;23.320;2023-02-22T04:29:55;93055.06;;;5.41;56.40
39789;BME280;25478;42.626;23.320;2023-02-22T04:32:20;93062.50;;;5.39;55.36
39789;BME280;25478;42.626;23.320;2023-02-22T04:34:46;93059.44;;;5.37;55.52
39789;BME280;25478;42.626;23.320;2023-02-22T04:37:12;93064.59;;;5.33;56.04
39789;BME280;25478;42.626;23.320;2023-02-22T04:39:37;93069.06;;;5.33;56.14
39789;BME280;25478;42.626;23.320;2023-02-22T04:42:03;93065.69;;;5.32;55.67
39789;BME280;25478;42.626;23.320;2023-02-22T04:44:31;93065.59;;;5.29;56.05
39789;BME280;25478;42.626;23.320;2023-02-22T04:46:58;93066.34;;;5.29;55.73
39789;BME280;25478;42.626;23.320;2023-02-22T04:49:23;93068.91;;;5.26;55.88
39789;BME280;25478;42.626;23.320;2023-02-22T04:51:50;93066.63;;;5.24;55.61
39789;BME280;25478;42.626;23.320;2023-02-22T04:54:21;93070.25;;;5.20;55.80
39789;BME280;25478;42.626;23.320;2023-02-22T04:56:47;93065.72;;;5.17;55.95
39789;BME280;25478;42.626;23.320;2023-02-22T04:59:12;93058.16;;;5.12;56.38
39789;BME280;25478;42.626;23.320;2023-02-22T05:01:42;93058.41;;;5.06;56.83
39789;BME280;25478;42.626;23.320;2023-02-22T05:04:07;93063.88;;;5.01;56.52
39789;BME280;25478;42.626;23.320;2023-02-22T05:06:33;93050.25;;;4.92;57.06
39789;BME280;25478;42.626;23.320;2023-02-22T05:08:58;93059.59;;;4.93;57.11
39789;BME280;25478;42.626;23.320;2023-02-22T05:11:24;93058.03;;;4.89;57.35
39789;BME280;25478;42.626;23.320;2023-02-22T05:13:49;93060.19;;;4.87;57.61
39789;BME280;25478;42.626;23.320;2023-02-22T05:16:15;93059.13;;;4.88;57.62
39789;BME280;25478;42.626;23.320;2023-02-22T05:18:41;93065.16;;;4.92;57.27
39789;BME280;25478;42.626;23.320;2023-02-22T05:21:07;93064.47;;;4.95;57.54
39789;BME280;25478;42.626;23.320;2023-02-22T05:23:32;93070.88;;;4.97;57.32
39789;BME280;25478;42.626;23.320;2023-02-22T05:25:59;93074.25;;;4.98;57.98
39789;BME280;25478;42.626;23.320;2023-02-22T05:28:24;93067.00;;;4.91;58.06
39789;BME280;25478;42.626;23.320;2023-02-22T05:30:50;93070.38;;;4.92;57.28
39789;BME280;25478;42.626;23.320;2023-02-22T05:33:16;93090.66;;;4.98;57.70
39789;BME280;25478;42.626;23.320;2023-02-22T05:35:41;93084.34;;;4.99;58.00
39789;BME280;25478;42.626;23.320;2023-02-22T05:38:12;93089.97;;;5.01;58.20
39789;BME280;25478;42.626;23.320;2023-02-22T05:40:39;93091.81;;;5.01;58.26
39789;BME280;25478;42.626;23.320;2023-02-22T05:43:05;93092.25;;;5.03;58.41
39789;BME280;25478;42.626;23.320;2023-02-22T05:45:31;93102.03;;;5.06;58.40
39789;BME280;25478;42.626;23.320;2023-02-22T05:47:57;93099.88;;;5.12;58.20
39789;BME280;25478;42.626;23.320;2023-02-22T05:50:23;93101.91;;;5.18;58.39
39789;BME280;25478;42.626;23.320;2023-02-22T05:52:49;93100.97;;;5.26;58.36
39789;BME280;25478;42.626;23.320;2023-02-22T05:55:16;93099.69;;;5.36;58.32
39789;BME280;25478;42.626;23.320;2023-02-22T05:57:42;93095.38;;;5.44;58.36
39789;BME280;25478;42.626;23.320;2023-02-22T06:00:09;93102.44;;;5.59;58.45
39789;BME280;25478;42.626;23.320;2023-02-22T06:02:38;93105.00;;;5.75;57.75
39789;BME280;25478;42.626;23.320;2023-02-22T06:05:03;93100.06;;;5.89;57.19
39789;BME280;25478;42.626;23.320;2023-02-22T06:07:29;93106.50;;;6.11;57.32
39789;BME280;25478;42.626;23.320;2023-02-22T06:09:55;93103.19;;;6.33;56.88
39789;BME280;25478;42.626;23.320;2023-02-22T06:12:20;93108.38;;;6.53;56.08
39789;BME280;25478;42.626;23.320;2023-02-22T06:14:45;93110.97;;;6.72;55.93
39789;BME280;25478;42.626;23.320;2023-02-22T06:17:12;93114.28;;;6.92;55.47
39789;BME280;25478;42.626;23.320;2023-02-22T06:19:38;93116.72;;;7.04;55.49
39789;BME280;25478;42.626;23.320;2023-02-22T06:22:05;93118.44;;;7.16;55.07
39789;BME280;25478;42.626;23.320;2023-02-22T06:24:31;93111.84;;;7.25;55.09
39789;BME280;25478;42.626;23.320;2023-02-22T06:27:00;93125.47;;;7.38;54.21
39789;BME280;25478;42.626;23.320;2023-02-22T06:29:27;93113.72;;;7.51;54.10
39789;BME280;25478;42.626;23.320;2023-02-22T06:31:53;93104.47;;;7.61;54.21
39789;BME280;25478;42.626;23.320;2023-02-22T06:34:19;93117.19;;;7.89;54.45
39789;BME280;25478;42.626;23.320;2023-02-22T06:36:46;93105.09;;;8.07;53.16
39789;BME280;25478;42.626;23.320;2023-02-22T06:39:13;93110.00;;;8.42;52.86
39789;BME280;25478;42.626;23.320;2023-02-22T06:41:44;93092.22;;;8.62;52.24
39789;BME280;25478;42.626;23.320;2023-02-22T06:44:11;93109.09;;;9.06;51.78
39789;BME280;25478;42.626;23.320;2023-02-22T06:46:37;93101.47;;;9.38;51.14
39789;BME280;25478;42.626;23.320;2023-02-22T06:49:03;93101.31;;;9.71;50.57
39789;BME280;25478;42.626;23.320;2023-02-22T06:51:29;93089.81;;;9.94;49.59
39789;BME280;25478;42.626;23.320;2023-02-22T06:53:55;93083.56;;;10.23;49.02
39789;BME280;25478;42.626;23.320;2023-02-22T06:56:21;93102.47;;;10.61;48.95
39789;BME280;25478;42.626;23.320;2023-02-22T06:58:46;93096.47;;;10.64;48.56
39789;BME280;25478;42.626;23.320;2023-02-22T07:01:13;93100.97;;;10.63;48.30
39789;BME280;25478;42.626;23.320;2023-02-22T07:03:39;93117.81;;;10.41;47.96
39789;BME280;25478;42.626;23.320;2023-02-22T07:06:06;93109.41;;;10.10;47.53
39789;BME280;25478;42.626;23.320;2023-02-22T07:08:32;93104.63;;;9.61;47.84
39789;BME280;25478;42.626;23.320;2023-02-22T07:10:57;93104.03;;;9.27;48.47
39789;BME280;25478;42.626;23.320;2023-02-22T07:13:23;93118.16;;;9.08;48.45
39789;BME280;25478;42.626;23.320;2023-02-22T07:15:49;93128.22;;;9.02;49.11
39789;BME280;25478;42.626;23.320;2023-02-22T07:18:14;93118.38;;;8.92;48.69
39789;BME280;25478;42.626;23.320;2023-02-22T07:20:40;93116.88;;;8.91;49.65
39789;BME280;25478;42.626;23.320;2023-02-22T07:23:06;93117.78;;;9.13;49.07
39789;BME280;25478;42.626;23.320;2023-02-22T07:25:32;93112.31;;;9.32;48.47
39789;BME280;25478;42.626;23.320;2023-02-22T07:27:57;93111.69;;;9.50;48.53
39789;BME280;25478;42.626;23.320;2023-02-22T07:30:31;93115.91;;;9.62;48.00
39789;BME280;25478;42.626;23.320;2023-02-22T07:32:59;93120.31;;;9.47;48.10
39789;BME280;25478;42.626;23.320;2023-02-22T07:35:45;93120.69;;;9.49;48.20
39789;BME280;25478;42.626;23.320;2023-02-22T07:38:13;93129.41;;;9.60;47.93
39789;BME280;25478;42.626;23.320;2023-02-22T07:40:40;93120.84;;;9.70;47.78
39789;BME280;25478;42.626;23.320;2023-02-22T07:43:13;93129.91;;;9.76;47.88
39789;BME280;25478;42.626;23.320;2023-02-22T07:45:39;93123.56;;;9.84;47.79
39789;BME280;25478;42.626;23.320;2023-02-22T07:48:05;93116.47;;;9.96;47.90
39789;BME280;25478;42.626;23.320;2023-02-22T07:50:33;93117.28;;;10.07;47.60
39789;BME280;25478;42.626;23.320;2023-02-22T07:53:01;93114.69;;;10.14;47.57
39789;BME280;25478;42.626;23.320;2023-02-22T07:55:29;93117.38;;;10.25;47.33
39789;BME280;25478;42.626;23.320;2023-02-22T07:57:59;93104.66;;;10.41;47.01
39789;BME280;25478;42.626;23.320;2023-02-22T08:00:29;93090.03;;;10.51;46.87
39789;BME280;25478;42.626;23.320;2023-02-22T08:02:55;93096.47;;;10.71;46.74
39789;BME280;25478;42.626;23.320;2023-02-22T08:05:24;93076.91;;;10.72;46.21
39789;BME280;25478;42.626;23.320;2023-02-22T08:07:50;93087.47;;;10.79;46.31
39789;BME280;25478;42.626;23.320;2023-02-22T08:10:17;93089.00;;;10.98;45.88
39789;BME280;25478;42.626;23.320;2023-02-22T08:12:43;93108.56;;;11.04;45.94
39789;BME280;25478;42.626;23.320;2023-02-22T08:15:15;93104.81;;;11.02;46.18
39789;BME280;25478;42.626;23.320;2023-02-22T08:17:41;93099.53;;;11.02;45.69
39789;BME280;25478;42.626;23.320;2023-02-22T08:20:07;93107.44;;;11.02;45.75
39789;BME280;25478;42.626;23.320;2023-02-22T08:22:32;93107.81;;;11.04;45.59
39789;BME280;25478;42.626;23.320;2023-02-22T08:24:58;93105.19;;;11.04;45.28
39789;BME280;25478;42.626;23.320;2023-02-22T08:27:25;93106.28;;;10.99;45.36
39789;BME280;25478;42.626;23.320;2023-02-22T08:29:51;93092.38;;;10.91;45.51
39789;BME280;25478;42.626;23.320;2023-02-22T08:32:16;93113.09;;;11.14;45.47
39789;BME280;25478;42.626;23.320;2023-02-22T08:34:43;93111.19;;;11.25;45.12
39789;BME280;25478;42.626;23.320;2023-02-22T08:37:09;93108.19;;;11.34;44.93
39789;BME280;25478;42.626;23.320;2023-02-22T08:39:35;93093.16;;;11.31;44.76
39789;BME280;25478;42.626;23.320;2023-02-22T08:42:01;93091.25;;;11.39;44.27
39789;BME280;25478;42.626;23.320;2023-02-22T08:44:26;93077.34;;;11.31;44.63
39789;BME280;25478;42.626;23.320;2023-02-22T08:46:52;93111.94;;;11.51;44.51
39789;BME280;25478;42.626;23.320;2023-02-22T08:49:17;93104.41;;;11.60;44.43
39789;BME280;25478;42.626;23.320;2023-02-22T08:51:45;93102.16;;;11.69;44.32
39789;BME280;25478;42.626;23.320;2023-02-22T08:54:11;93101.03;;;11.81;44.35
39789;BME280;25478;42.626;23.320;2023-02-22T08:56:36;93104.00;;;11.94;43.87
39789;BME280;25478;42.626;23.320;2023-02-22T08:59:02;93108.50;;;12.00;43.73
39789;BME280;25478;42.626;23.320;2023-02-22T09:01:27;93107.34;;;12.08;43.60
39789;BME280;25478;42.626;23.320;2023-02-22T09:03:53;93083.25;;;12.06;43.62
39789;BME280;25478;42.626;23.320;2023-02-22T09:06:21;93099.75;;;12.28;43.28
39789;BME280;25478;42.626;23.320;2023-02-22T09:08:46;93101.56;;;12.42;42.74
39789;BME280;25478;42.626;23.320;2023-02-22T09:11:12;93107.94;;;12.55;42.65
39789;BME280;25478;42.626;23.320;2023-02-22T09:13:37;93091.25;;;12.69;42.17
39789;BME280;25478;42.626;23.320;2023-02-22T09:16:03;93090.44;;;12.83;41.47
39789;BME280;25478;42.626;23.320;2023-02-22T09:18:28;93082.03;;;12.99;40.98
39789;BME280;25478;42.626;23.320;2023-02-22T09:20:54;93083.13;;;13.05;40.78
39789;BME280;25478;42.626;23.320;2023-02-22T09:23:20;93083.44;;;13.10;40.87
39789;BME280;25478;42.626;23.320;2023-02-22T09:25:49;93081.50;;;13.18;40.72
39789;BME280;25478;42.626;23.320;2023-02-22T09:28:15;93088.31;;;13.22;40.45
39789;BME280;25478;42.626;23.320;2023-02-22T09:30:41;93081.84;;;13.27;40.63
39789;BME280;25478;42.626;23.320;2023-02-22T09:33:08;93082.53;;;13.35;40.11
39789;BME280;25478;42.626;23.320;2023-02-22T09:35:35;93076.84;;;13.36;40.19
39789;BME280;25478;42.626;23.320;2023-02-22T09:38:01;93091.56;;;13.41;40.13
39789;BME280;25478;42.626;23.320;2023-02-22T09:40:32;93082.47;;;13.45;40.21
39789;BME280;25478;42.626;23.320;2023-02-22T09:43:29;93079.44;;;13.43;39.98
39789;BME280;25478;42.626;23.320;2023-02-22T09:48:32;93082.44;;;13.49;40.05
39789;BME280;25478;42.626;23.320;2023-02-22T09:51:01;93077.47;;;13.55;39.83
39789;BME280;25478;42.626;23.320;2023-02-22T09:56:13;93074.28;;;13.70;39.80
39789;BME280;25478;42.626;23.320;2023-02-22T09:58:42;93068.94;;;13.77;39.07
39789;BME280;25478;42.626;23.320;2023-02-22T10:01:29;93066.59;;;13.83;39.40
39789;BME280;25478;42.626;23.320;2023-02-22T10:07:22;93052.84;;;13.95;39.41
39789;BME280;25478;42.626;23.320;2023-02-22T10:09:51;93054.41;;;13.93;39.46
39789;BME280;25478;42.626;23.320;2023-02-22T10:12:36;93058.47;;;14.01;38.96
39789;BME280;25478;42.626;23.320;2023-02-22T10:15:39;93046.31;;;14.07;39.35
39789;BME280;25478;42.626;23.320;2023-02-22T10:21:04;93038.09;;;14.28;38.84
39789;BME280;25478;42.626;23.320;2023-02-22T10:26:29;93015.13;;;14.22;38.54
39789;BME280;25478;42.626;23.320;2023-02-22T10:29:04;93027.16;;;14.30;39.17
39789;BME280;25478;42.626;23.320;2023-02-22T10:31:36;93024.34;;;14.41;38.92
39789;BME280;25478;42.626;23.320;2023-02-22T10:34:36;92997.81;;;14.48;39.09
39789;BME280;25478;42.626;23.320;2023-02-22T10:37:36;93010.38;;;14.67;37.85
39789;BME280;25478;42.626;23.320;2023-02-22T10:40:17;93011.88;;;14.68;37.61
39789;BME280;25478;42.626;23.320;2023-02-22T10:42:44;92989.75;;;14.55;37.63
39789;BME280;25478;42.626;23.320;2023-02-22T10:47:54;92993.91;;;14.79;37.83
39789;BME280;25478;42.626;23.320;2023-02-22T10:50:20;92994.97;;;14.85;37.53
39789;BME280;25478;42.626;23.320;2023-02-22T10:52:47;92993.38;;;14.91;37.81
39789;BME280;25478;42.626;23.320;2023-02-22T10:55:14;92983.44;;;14.96;36.35
39789;BME280;25478;42.626;23.320;2023-02-22T10:57:43;92983.81;;;14.98;36.58
39789;BME280;25478;42.626;23.320;2023-02-22T11:03:30;92979.16;;;15.05;36.76
39789;BME280;25478;42.626;23.320;2023-02-22T11:05:41;92981.28;;;15.14;36.82
39789;BME280;25478;42.626;23.320;2023-02-22T11:08:25;92985.59;;;15.28;36.76
39789;BME280;25478;42.626;23.320;2023-02-22T11:10:59;92978.97;;;15.39;36.43
39789;BME280;25478;42.626;23.320;2023-02-22T11:13:29;92975.69;;;15.52;35.82
39789;BME280;25478;42.626;23.320;2023-02-22T11:16:19;92977.88;;;15.57;35.51
39789;BME280;25478;42.626;23.320;2023-02-22T11:18:48;92975.34;;;15.49;35.12
39789;BME280;25478;42.626;23.320;2023-02-22T11:21:20;92976.03;;;15.54;35.88
39789;BME280;25478;42.626;23.320;2023-02-22T11:23:47;92959.59;;;15.62;35.23
39789;BME280;25478;42.626;23.320;2023-02-22T11:26:17;92948.34;;;15.55;35.14
39789;BME280;25478;42.626;23.320;2023-02-22T11:28:53;92953.09;;;15.67;35.43
39789;BME280;25478;42.626;23.320;2023-02-22T11:31:26;92958.88;;;15.82;34.66
39789;BME280;25478;42.626;23.320;2023-02-22T11:33:59;92959.25;;;15.80;34.34
39789;BME280;25478;42.626;23.320;2023-02-22T11:36:33;92962.28;;;15.82;34.46
39789;BME280;25478;42.626;23.320;2023-02-22T11:39:03;92945.31;;;15.76;34.74
39789;BME280;25478;42.626;23.320;2023-02-22T11:41:33;92947.91;;;15.80;34.92
39789;BME280;25478;42.626;23.320;2023-02-22T11:44:25;92946.91;;;15.73;35.04
39789;BME280;25478;42.626;23.320;2023-02-22T11:46:55;92943.00;;;15.78;34.62
39789;BME280;25478;42.626;23.320;2023-02-22T11:49:33;92950.63;;;15.76;34.84
39789;BME280;25478;42.626;23.320;2023-02-22T11:52:23;92945.03;;;15.70;34.83
39789;BME280;25478;42.626;23.320;2023-02-22T12:00:20;92937.09;;;15.70;33.91
39789;BME280;25478;42.626;23.320;2023-02-22T12:03:06;92928.31;;;15.73;33.80
39789;BME280;25478;42.626;23.320;2023-02-22T12:11:14;92922.28;;;15.73;34.14
39789;BME280;25478;42.626;23.320;2023-02-22T12:14:04;92935.53;;;15.73;34.43
39789;BME280;25478;42.626;23.320;2023-02-22T12:16:51;92930.22;;;15.73;34.76
39789;BME280;25478;42.626;23.320;2023-02-22T12:19:34;92930.00;;;15.84;34.77
39789;BME280;25478;42.626;23.320;2023-02-22T12:22:07;92921.91;;;15.91;34.44
39789;BME280;25478;42.626;23.320;2023-02-22T12:24:37;92913.13;;;15.94;34.61
39789;BME280;25478;42.626;23.320;2023-02-22T12:27:11;92918.19;;;16.04;34.21
39789;BME280;25478;42.626;23.320;2023-02-22T12:29:47;92897.47;;;15.99;34.12
39789;BME280;25478;42.626;23.320;2023-02-22T12:32:39;92890.66;;;15.98;34.05
39789;BME280;25478;42.626;23.320;2023-02-22T12:37:47;92908.16;;;16.12;33.41
39789;BME280;25478;42.626;23.320;2023-02-22T12:40:40;92903.00;;;16.05;33.20
39789;BME280;25478;42.626;23.320;2023-02-22T12:43:14;92902.81;;;15.96;33.61
39789;BME280;25478;42.626;23.320;2023-02-22T12:54:39;92896.72;;;15.79;33.72
39789;BME280;25478;42.626;23.320;2023-02-22T13:00:03;92895.78;;;15.89;34.06
39789;BME280;25478;42.626;23.320;2023-02-22T13:03:01;92882.66;;;15.82;34.48
39789;BME280;25478;42.626;23.320;2023-02-22T13:05:39;92889.31;;;15.90;33.80
39789;BME280;25478;42.626;23.320;2023-02-22T13:11:00;92889.44;;;15.83;34.21
39789;BME280;25478;42.626;23.320;2023-02-22T13:18:58;92885.16;;;15.89;34.02
39789;BME280;25478;42.626;23.320;2023-02-22T13:21:48;92888.28;;;15.84;34.21
39789;BME280;25478;42.626;23.320;2023-02-22T13:24:22;92884.19;;;15.80;34.11
39789;BME280;25478;42.626;23.320;2023-02-22T13:26:58;92881.22;;;15.77;34.10
39789;BME280;25478;42.626;23.320;2023-02-22T13:29:34;92880.88;;;15.75;34.31
39789;BME280;25478;42.626;23.320;2023-02-22T13:34:50;92883.69;;;15.68;34.01
39789;BME280;25478;42.626;23.320;2023-02-22T13:45:57;92876.25;;;15.60;34.18
39789;BME280;25478;42.626;23.320;2023-02-22T13:51:05;92874.31;;;15.64;33.56
39789;BME280;25478;42.626;23.320;2023-02-22T13:53:45;92872.78;;;15.63;33.40
39789;BME280;25478;42.626;23.320;2023-02-22T13:56:13;92865.72;;;15.56;33.96
39789;BME280;25478;42.626;23.320;2023-02-22T13:58:53;92874.75;;;15.59;33.79
39789;BME280;25478;42.626;23.320;2023-02-22T14:01:36;92872.16;;;15.55;33.91
39789;BME280;25478;42.626;23.320;2023-02-22T14:04:38;92871.03;;;15.56;34.11
39789;BME280;25478;42.626;23.320;2023-02-22T14:09:54;92868.56;;;15.45;34.56
39789;BME280;25478;42.626;23.320;2023-02-22T14:20:18;92874.53;;;15.30;34.73
39789;BME280;25478;42.626;23.320;2023-02-22T14:22:49;92863.69;;;15.24;34.78
39789;BME280;25478;42.626;23.320;2023-02-22T14:25:40;92876.94;;;15.24;35.00
39789;BME280;25478;42.626;23.320;2023-02-22T14:31:05;92874.75;;;15.19;35.27
39789;BME280;25478;42.626;23.320;2023-02-22T14:33:59;92879.44;;;15.11;35.49
39789;BME280;25478;42.626;23.320;2023-02-22T14:42:27;92872.31;;;14.61;37.10
39789;BME280;25478;42.626;23.320;2023-02-22T14:45:02;92864.63;;;14.44;37.47
39789;BME280;25478;42.626;23.320;2023-02-22T14:47:40;92870.50;;;14.31;38.01
39789;BME280;25478;42.626;23.320;2023-02-22T14:50:16;92868.13;;;14.14;38.73
39789;BME280;25478;42.626;23.320;2023-02-22T14:52:55;92867.25;;;13.97;39.23
39789;BME280;25478;42.626;23.320;2023-02-22T14:55:25;92867.09;;;13.80;39.42
39789;BME280;25478;42.626;23.320;2023-02-22T15:00:44;92872.31;;;13.53;40.13
39789;BME280;25478;42.626;23.320;2023-02-22T15:03:36;92875.91;;;13.36;40.01
39789;BME280;25478;42.626;23.320;2023-02-22T15:06:15;92871.91;;;13.24;40.66
39789;BME280;25478;42.626;23.320;2023-02-22T15:08:42;92858.91;;;13.03;41.18
39789;BME280;25478;42.626;23.320;2023-02-22T15:11:29;92869.16;;;12.98;41.21
39789;BME280;25478;42.626;23.320;2023-02-22T15:13:57;92861.72;;;12.85;41.79
39789;BME280;25478;42.626;23.320;2023-02-22T15:16:28;92875.75;;;12.79;41.99
39789;BME280;25478;42.626;23.320;2023-02-22T15:19:02;92868.28;;;12.70;42.28
39789;BME280;25478;42.626;23.320;2023-02-22T15:21:29;92871.75;;;12.60;42.61
39789;BME280;25478;42.626;23.320;2023-02-22T15:23:59;92872.94;;;12.52;42.95
39789;BME280;25478;42.626;23.320;2023-02-22T15:26:39;92873.78;;;12.42;43.01